BAW804 EGLL-LTBS
Flight info
| Callsign | BAW804 |
|---|---|
| Flight time | 3h 34m |
| Altitude | 35000 |
| Route | DET L6 DVR UL9 KONAN UL607 KOK M150 PITES DCT BABEG DCT KUMOM DCT NIPEL DCT NEMEK DCT ETOBI DCT OSLUD DCT MEDUX UM867 KOGAT DCT DISOR UL608 FSK UN128 LMO UN127 RIKSO UP14 ODNOD UT491 SONUP |
| Aircraft | A21N/M-SDE2E3FGHIRWXY/LB1 |
Departure
| Time | 2026-05-06 20:54 |
|---|---|
| Airport | London Heathrow Airport (EGLL) |
Arrival
| Time | 2026-05-07 00:28 |
|---|---|
| Airport | Dalaman International Airport (LTBS) |
| Time | Latitude | Longitude | Altitude | Speed | Heading |
|---|---|---|---|---|---|
| 2026-05-06 20:31 | 51.47315 | -0.48597 | 86 ft | 0 kts | 270° |
| 2026-05-06 20:45 | 51.47315 | -0.48563 | 87 ft | 4 kts | 270° |
| 2026-05-06 20:45 | 51.47316 | -0.48521 | 86 ft | 2 kts | 270° |
| 2026-05-06 20:45 | 51.47318 | -0.48490 | 87 ft | 4 kts | 220° |
| 2026-05-06 20:45 | 51.47341 | -0.48477 | 88 ft | 4 kts | 181° |
| 2026-05-06 20:46 | 51.47367 | -0.48476 | 86 ft | 4 kts | 180° |
| 2026-05-06 20:46 | 51.47372 | -0.48476 | 86 ft | 0 kts | 180° |
| 2026-05-06 20:49 | 51.47369 | -0.48476 | 86 ft | 1 kts | 180° |
| 2026-05-06 20:49 | 51.47354 | -0.48476 | 88 ft | 6 kts | 178° |
| 2026-05-06 20:49 | 51.47290 | -0.48464 | 87 ft | 11 kts | 155° |
| 2026-05-06 20:50 | 51.47248 | -0.48366 | 88 ft | 11 kts | 148° |
| 2026-05-06 20:50 | 51.47165 | -0.48357 | 87 ft | 13 kts | 180° |
| 2026-05-06 20:50 | 51.47070 | -0.48356 | 88 ft | 14 kts | 179° |
| 2026-05-06 20:50 | 51.46965 | -0.48355 | 87 ft | 16 kts | 180° |
| 2026-05-06 20:51 | 51.46850 | -0.48354 | 86 ft | 13 kts | 180° |
| 2026-05-06 20:51 | 51.46765 | -0.48345 | 90 ft | 13 kts | 158° |
| 2026-05-06 20:51 | 51.46728 | -0.48229 | 90 ft | 10 kts | 138° |
| 2026-05-06 20:51 | 51.46649 | -0.48213 | 86 ft | 12 kts | 179° |
| 2026-05-06 20:52 | 51.46607 | -0.48213 | 86 ft | 0 kts | 180° |
| 2026-05-06 20:52 | 51.46604 | -0.48213 | 86 ft | 1 kts | 180° |
| 2026-05-06 20:52 | 51.46573 | -0.48213 | 87 ft | 8 kts | 179° |
| 2026-05-06 20:52 | 51.46506 | -0.48205 | 92 ft | 11 kts | 158° |
| 2026-05-06 20:53 | 51.46479 | -0.48085 | 87 ft | 7 kts | 89° |
| 2026-05-06 20:53 | 51.46479 | -0.48075 | 87 ft | 0 kts | 89° |
| 2026-05-06 20:53 | 51.46480 | -0.48006 | 88 ft | 29 kts | 89° |
| 2026-05-06 20:53 | 51.46482 | -0.47289 | 87 ft | 97 kts | 90° |
| 2026-05-06 20:54 | 51.46488 | -0.45885 | 86 ft | 153 kts | 90° |
| 2026-05-06 20:54 | 51.46492 | -0.44012 | 463 ft | 170 kts | 89° |
| 2026-05-06 20:54 | 51.46505 | -0.42115 | 1245 ft | 171 kts | 86° |
| 2026-05-06 20:54 | 51.46330 | -0.40124 | 1624 ft | 197 kts | 116° |
| 2026-05-06 20:55 | 51.45405 | -0.38346 | 1840 ft | 217 kts | 131° |
| 2026-05-06 20:55 | 51.44324 | -0.36497 | 2001 ft | 240 kts | 127° |
| 2026-05-06 20:55 | 51.43491 | -0.34108 | 2306 ft | 252 kts | 101° |
| 2026-05-06 20:55 | 51.43148 | -0.31323 | 2917 ft | 256 kts | 99° |
| 2026-05-06 20:56 | 51.42781 | -0.28510 | 3550 ft | 260 kts | 100° |
| 2026-05-06 20:56 | 51.42398 | -0.25703 | 4158 ft | 263 kts | 101° |
| 2026-05-06 20:56 | 51.42007 | -0.22823 | 4759 ft | 267 kts | 101° |
| 2026-05-06 20:56 | 51.41611 | -0.19897 | 5378 ft | 270 kts | 101° |
| 2026-05-06 20:57 | 51.41211 | -0.16939 | 5875 ft | 275 kts | 101° |
| 2026-05-06 20:57 | 51.40806 | -0.13960 | 6003 ft | 275 kts | 102° |
| 2026-05-06 20:57 | 51.40396 | -0.10975 | 6048 ft | 275 kts | 101° |
| 2026-05-06 20:57 | 51.39982 | -0.07966 | 6631 ft | 276 kts | 101° |
| 2026-05-06 20:58 | 51.39566 | -0.04946 | 7220 ft | 279 kts | 101° |
| 2026-05-06 20:58 | 51.39144 | -0.01902 | 7803 ft | 282 kts | 101° |
| 2026-05-06 20:58 | 51.38716 | 0.01173 | 8381 ft | 284 kts | 102° |
| 2026-05-06 20:58 | 51.38282 | 0.04282 | 8918 ft | 289 kts | 102° |
| 2026-05-06 20:59 | 51.37843 | 0.07431 | 9478 ft | 292 kts | 102° |
| 2026-05-06 20:59 | 51.37396 | 0.10618 | 10026 ft | 295 kts | 102° |
| 2026-05-06 20:59 | 51.36937 | 0.13880 | 10263 ft | 309 kts | 102° |
| 2026-05-06 20:59 | 51.36450 | 0.17327 | 10408 ft | 326 kts | 102° |
| 2026-05-06 21:00 | 51.35938 | 0.20962 | 10521 ft | 342 kts | 102° |
| 2026-05-06 21:00 | 51.35403 | 0.24756 | 10647 ft | 357 kts | 102° |
| 2026-05-06 21:00 | 51.34848 | 0.28690 | 10901 ft | 367 kts | 102° |
| 2026-05-06 21:00 | 51.34281 | 0.32698 | 11343 ft | 371 kts | 102° |
| 2026-05-06 21:01 | 51.33708 | 0.36731 | 11829 ft | 373 kts | 102° |
| 2026-05-06 21:01 | 51.33126 | 0.40791 | 12308 ft | 376 kts | 102° |
| 2026-05-06 21:01 | 51.32538 | 0.44881 | 12794 ft | 378 kts | 102° |
| 2026-05-06 21:01 | 51.31947 | 0.48992 | 13273 ft | 381 kts | 102° |
| 2026-05-06 21:02 | 51.31351 | 0.53130 | 13753 ft | 383 kts | 102° |
| 2026-05-06 21:02 | 51.30750 | 0.57289 | 14171 ft | 386 kts | 102° |
| 2026-05-06 21:02 | 51.30128 | 0.61477 | 14596 ft | 388 kts | 104° |
| 2026-05-06 21:02 | 51.29426 | 0.65656 | 15024 ft | 391 kts | 105° |
| 2026-05-06 21:03 | 51.28659 | 0.69841 | 15441 ft | 393 kts | 106° |
| 2026-05-06 21:03 | 51.27861 | 0.74035 | 15858 ft | 396 kts | 107° |
| 2026-05-06 21:03 | 51.27054 | 0.78247 | 16268 ft | 399 kts | 107° |
| 2026-05-06 21:03 | 51.26245 | 0.82500 | 16676 ft | 401 kts | 107° |
| 2026-05-06 21:04 | 51.25441 | 0.86766 | 17067 ft | 403 kts | 106° |
| 2026-05-06 21:04 | 51.24637 | 0.91079 | 17450 ft | 406 kts | 106° |
| 2026-05-06 21:04 | 51.23835 | 0.95407 | 17832 ft | 408 kts | 106° |
| 2026-05-06 21:04 | 51.23029 | 0.99769 | 18206 ft | 411 kts | 106° |
| 2026-05-06 21:05 | 51.22220 | 1.04153 | 18524 ft | 413 kts | 107° |
| 2026-05-06 21:05 | 51.21405 | 1.08552 | 18873 ft | 415 kts | 107° |
| 2026-05-06 21:05 | 51.20583 | 1.12971 | 19203 ft | 417 kts | 107° |
| 2026-05-06 21:05 | 51.19755 | 1.17415 | 19530 ft | 419 kts | 107° |
| 2026-05-06 21:06 | 51.18918 | 1.21878 | 19864 ft | 421 kts | 107° |
| 2026-05-06 21:06 | 51.18086 | 1.26292 | 20188 ft | 423 kts | 107° |
| 2026-05-06 21:06 | 51.17236 | 1.30784 | 20524 ft | 424 kts | 107° |
| 2026-05-06 21:06 | 51.16442 | 1.35386 | 20842 ft | 427 kts | 102° |
| 2026-05-06 21:07 | 51.16063 | 1.40019 | 21154 ft | 429 kts | 94° |
| 2026-05-06 21:07 | 51.15843 | 1.44763 | 21467 ft | 431 kts | 94° |
| 2026-05-06 21:07 | 51.15619 | 1.49530 | 21765 ft | 433 kts | 95° |
| 2026-05-06 21:07 | 51.15388 | 1.54329 | 22076 ft | 435 kts | 95° |
| 2026-05-06 21:08 | 51.15153 | 1.59138 | 22390 ft | 437 kts | 95° |
| 2026-05-06 21:08 | 51.14915 | 1.63977 | 22691 ft | 439 kts | 95° |
| 2026-05-06 21:08 | 51.14675 | 1.68823 | 22994 ft | 441 kts | 95° |
| 2026-05-06 21:08 | 51.14432 | 1.73699 | 23291 ft | 442 kts | 95° |
| 2026-05-06 21:09 | 51.14187 | 1.78594 | 23579 ft | 444 kts | 95° |
| 2026-05-06 21:09 | 51.13938 | 1.83505 | 23833 ft | 446 kts | 95° |
| 2026-05-06 21:09 | 51.13684 | 1.88431 | 24098 ft | 447 kts | 95° |
| 2026-05-06 21:09 | 51.13426 | 1.93373 | 24362 ft | 448 kts | 95° |
| 2026-05-06 21:10 | 51.13167 | 1.98326 | 24629 ft | 450 kts | 95° |
| 2026-05-06 21:10 | 51.12904 | 2.03292 | 24880 ft | 451 kts | 95° |
| 2026-05-06 21:10 | 51.12640 | 2.08279 | 25126 ft | 452 kts | 95° |
| 2026-05-06 21:10 | 51.12374 | 2.13274 | 25367 ft | 454 kts | 95° |
| 2026-05-06 21:11 | 51.12104 | 2.18284 | 25604 ft | 455 kts | 95° |
| 2026-05-06 21:11 | 51.11831 | 2.23315 | 25840 ft | 457 kts | 95° |
| 2026-05-06 21:11 | 51.11556 | 2.28366 | 26058 ft | 459 kts | 95° |
| 2026-05-06 21:11 | 51.11278 | 2.33427 | 26291 ft | 460 kts | 95° |
| 2026-05-06 21:12 | 51.10999 | 2.38500 | 26514 ft | 462 kts | 96° |
| 2026-05-06 21:12 | 51.10716 | 2.43605 | 26725 ft | 463 kts | 95° |
| 2026-05-06 21:12 | 51.10428 | 2.48713 | 26935 ft | 465 kts | 96° |
| 2026-05-06 21:12 | 51.10130 | 2.53844 | 27146 ft | 466 kts | 96° |
| 2026-05-06 21:13 | 51.09823 | 2.58981 | 27351 ft | 467 kts | 97° |
| 2026-05-06 21:13 | 51.09219 | 2.64061 | 27540 ft | 468 kts | 106° |
| 2026-05-06 21:13 | 51.08153 | 2.68939 | 27710 ft | 468 kts | 115° |
| 2026-05-06 21:13 | 51.06693 | 2.73559 | 27891 ft | 468 kts | 119° |
| 2026-05-06 21:14 | 51.05168 | 2.78128 | 28150 ft | 467 kts | 119° |
| 2026-05-06 21:14 | 51.03648 | 2.82692 | 28431 ft | 467 kts | 119° |
| 2026-05-06 21:14 | 51.02131 | 2.87242 | 28721 ft | 465 kts | 119° |
| 2026-05-06 21:14 | 51.00619 | 2.91777 | 29006 ft | 464 kts | 119° |
| 2026-05-06 21:15 | 50.99107 | 2.96301 | 29267 ft | 463 kts | 119° |
| 2026-05-06 21:15 | 50.97601 | 3.00801 | 29534 ft | 463 kts | 119° |
| 2026-05-06 21:15 | 50.96087 | 3.05310 | 29779 ft | 462 kts | 119° |
| 2026-05-06 21:15 | 50.94573 | 3.09807 | 30031 ft | 461 kts | 119° |
| 2026-05-06 21:16 | 50.93059 | 3.14291 | 30246 ft | 461 kts | 119° |
| 2026-05-06 21:16 | 50.91546 | 3.18760 | 30441 ft | 460 kts | 119° |
| 2026-05-06 21:16 | 50.90051 | 3.23175 | 30642 ft | 460 kts | 119° |
| 2026-05-06 21:16 | 50.88542 | 3.27630 | 30840 ft | 460 kts | 119° |
| 2026-05-06 21:17 | 50.87030 | 3.32091 | 31057 ft | 459 kts | 118° |
| 2026-05-06 21:17 | 50.85528 | 3.36530 | 31280 ft | 458 kts | 118° |
| 2026-05-06 21:17 | 50.84021 | 3.40969 | 31470 ft | 457 kts | 118° |
| 2026-05-06 21:17 | 50.82513 | 3.45388 | 31660 ft | 457 kts | 118° |
| 2026-05-06 21:18 | 50.81001 | 3.49803 | 31870 ft | 456 kts | 118° |
| 2026-05-06 21:18 | 50.79490 | 3.54212 | 31980 ft | 456 kts | 118° |
| 2026-05-06 21:18 | 50.77980 | 3.58615 | 31979 ft | 456 kts | 118° |
| 2026-05-06 21:19 | 50.74952 | 3.67413 | 31980 ft | 456 kts | 118° |
| 2026-05-06 21:19 | 50.71915 | 3.76199 | 31961 ft | 455 kts | 119° |
| 2026-05-06 21:20 | 50.68889 | 3.84943 | 31961 ft | 454 kts | 119° |
| 2026-05-06 21:20 | 50.65852 | 3.93676 | 31955 ft | 454 kts | 119° |
| 2026-05-06 21:21 | 50.62815 | 4.02392 | 31965 ft | 454 kts | 119° |
| 2026-05-06 21:21 | 50.59772 | 4.11092 | 31952 ft | 454 kts | 119° |
| 2026-05-06 21:22 | 50.56721 | 4.19785 | 31977 ft | 454 kts | 119° |
| 2026-05-06 21:22 | 50.53656 | 4.28472 | 31969 ft | 454 kts | 120° |
| 2026-05-06 21:23 | 50.50583 | 4.37153 | 31982 ft | 454 kts | 120° |
| 2026-05-06 21:23 | 50.47509 | 4.45802 | 32151 ft | 452 kts | 120° |
| 2026-05-06 21:23 | 50.45981 | 4.50103 | 32415 ft | 450 kts | 120° |
| 2026-05-06 21:24 | 50.44459 | 4.54387 | 32682 ft | 448 kts | 119° |
| 2026-05-06 21:24 | 50.42941 | 4.58648 | 32900 ft | 448 kts | 120° |
| 2026-05-06 21:24 | 50.41436 | 4.62860 | 32972 ft | 450 kts | 120° |
| 2026-05-06 21:25 | 50.38354 | 4.71449 | 32953 ft | 453 kts | 120° |
| 2026-05-06 21:25 | 50.35262 | 4.80062 | 32953 ft | 454 kts | 120° |
| 2026-05-06 21:26 | 50.32156 | 4.88653 | 32954 ft | 454 kts | 120° |
| 2026-05-06 21:26 | 50.29052 | 4.97236 | 32953 ft | 453 kts | 120° |
| 2026-05-06 21:27 | 50.25949 | 5.05794 | 32950 ft | 452 kts | 120° |
| 2026-05-06 21:27 | 50.22841 | 5.14312 | 32950 ft | 450 kts | 120° |
| 2026-05-06 21:28 | 50.19736 | 5.22807 | 32945 ft | 450 kts | 120° |
| 2026-05-06 21:28 | 50.16631 | 5.31286 | 32945 ft | 450 kts | 120° |
| 2026-05-06 21:29 | 50.13509 | 5.39750 | 32948 ft | 450 kts | 120° |
| 2026-05-06 21:29 | 50.10381 | 5.48206 | 32945 ft | 450 kts | 120° |
| 2026-05-06 21:30 | 50.07249 | 5.56652 | 32941 ft | 451 kts | 121° |
| 2026-05-06 21:30 | 50.04116 | 5.65096 | 32942 ft | 450 kts | 121° |
| 2026-05-06 21:31 | 50.00984 | 5.73521 | 32936 ft | 450 kts | 121° |
| 2026-05-06 21:31 | 49.97859 | 5.81864 | 32937 ft | 450 kts | 121° |
| 2026-05-06 21:32 | 49.94710 | 5.90248 | 32931 ft | 450 kts | 121° |
| 2026-05-06 21:32 | 49.89984 | 6.02810 | 32922 ft | 449 kts | 121° |
| 2026-05-06 21:33 | 49.86824 | 6.11161 | 32923 ft | 449 kts | 121° |
| 2026-05-06 21:33 | 49.83758 | 6.19596 | 32915 ft | 449 kts | 119° |
| 2026-05-06 21:34 | 49.80889 | 6.28196 | 32916 ft | 449 kts | 118° |
| 2026-05-06 21:34 | 49.78039 | 6.36802 | 32910 ft | 449 kts | 118° |
| 2026-05-06 21:35 | 49.75138 | 6.45359 | 32910 ft | 449 kts | 119° |
| 2026-05-06 21:35 | 49.72206 | 6.53883 | 32903 ft | 449 kts | 118° |
| 2026-05-06 21:36 | 49.69419 | 6.62518 | 32887 ft | 449 kts | 116° |
| 2026-05-06 21:36 | 49.66727 | 6.71228 | 32881 ft | 449 kts | 116° |
| 2026-05-06 21:37 | 49.64469 | 6.78445 | 32878 ft | 448 kts | 118° |
| 2026-05-06 21:37 | 49.61717 | 6.87061 | 32882 ft | 447 kts | 117° |
| 2026-05-06 21:38 | 49.58951 | 6.95655 | 32882 ft | 448 kts | 118° |
| 2026-05-06 21:38 | 49.56184 | 7.04251 | 32884 ft | 448 kts | 118° |
| 2026-05-06 21:39 | 49.53415 | 7.12837 | 32887 ft | 448 kts | 117° |
| 2026-05-06 21:39 | 49.50644 | 7.21425 | 32881 ft | 448 kts | 117° |
| 2026-05-06 21:40 | 49.47857 | 7.30010 | 32882 ft | 449 kts | 118° |
| 2026-05-06 21:40 | 49.45056 | 7.38589 | 32879 ft | 449 kts | 118° |
| 2026-05-06 21:41 | 49.42250 | 7.47164 | 32879 ft | 449 kts | 118° |
| 2026-05-06 21:41 | 49.39439 | 7.55726 | 32877 ft | 449 kts | 118° |
| 2026-05-06 21:42 | 49.36624 | 7.64285 | 32877 ft | 450 kts | 118° |
| 2026-05-06 21:42 | 49.33795 | 7.72839 | 32878 ft | 450 kts | 118° |
| 2026-05-06 21:43 | 49.30962 | 7.81387 | 32879 ft | 450 kts | 118° |
| 2026-05-06 21:43 | 49.28118 | 7.89925 | 32885 ft | 450 kts | 118° |
| 2026-05-06 21:44 | 49.25270 | 7.98453 | 32885 ft | 450 kts | 118° |
| 2026-05-06 21:44 | 49.22418 | 8.06973 | 32886 ft | 450 kts | 119° |
| 2026-05-06 21:45 | 49.19560 | 8.15499 | 32890 ft | 451 kts | 119° |
| 2026-05-06 21:45 | 49.16685 | 8.24014 | 32888 ft | 450 kts | 119° |
| 2026-05-06 21:46 | 49.13807 | 8.32506 | 32888 ft | 450 kts | 119° |
| 2026-05-06 21:46 | 49.10921 | 8.41002 | 32882 ft | 450 kts | 120° |
| 2026-05-06 21:47 | 49.08033 | 8.49483 | 32882 ft | 451 kts | 120° |
| 2026-05-06 21:47 | 49.05160 | 8.57907 | 32882 ft | 451 kts | 120° |
| 2026-05-06 21:48 | 49.02259 | 8.66373 | 32887 ft | 451 kts | 120° |
| 2026-05-06 21:48 | 48.99356 | 8.74832 | 32887 ft | 451 kts | 120° |
| 2026-05-06 21:49 | 48.96449 | 8.83276 | 32883 ft | 450 kts | 120° |
| 2026-05-06 21:49 | 48.93526 | 8.91719 | 32890 ft | 452 kts | 121° |
| 2026-05-06 21:50 | 48.90584 | 9.00162 | 32893 ft | 452 kts | 121° |
| 2026-05-06 21:50 | 48.87640 | 9.08600 | 32893 ft | 452 kts | 121° |
| 2026-05-06 21:51 | 48.84693 | 9.17035 | 32892 ft | 452 kts | 121° |
| 2026-05-06 21:51 | 48.81746 | 9.25455 | 32894 ft | 452 kts | 122° |
| 2026-05-06 21:52 | 48.78789 | 9.33856 | 32893 ft | 451 kts | 122° |
| 2026-05-06 21:52 | 48.75821 | 9.42239 | 32896 ft | 451 kts | 122° |
| 2026-05-06 21:53 | 48.72847 | 9.50626 | 32898 ft | 452 kts | 122° |
| 2026-05-06 21:53 | 48.69876 | 9.58999 | 32898 ft | 451 kts | 122° |
| 2026-05-06 21:54 | 48.66894 | 9.67350 | 32898 ft | 451 kts | 123° |
| 2026-05-06 21:54 | 48.63758 | 9.75560 | 32905 ft | 451 kts | 126° |
| 2026-05-06 21:55 | 48.60510 | 9.83657 | 32905 ft | 450 kts | 126° |
| 2026-05-06 21:55 | 48.57267 | 9.91755 | 32907 ft | 451 kts | 126° |
| 2026-05-06 21:56 | 48.54054 | 9.99875 | 32873 ft | 451 kts | 126° |
| 2026-05-06 21:56 | 48.50846 | 10.07993 | 32915 ft | 451 kts | 126° |
| 2026-05-06 21:57 | 48.47622 | 10.16106 | 32920 ft | 451 kts | 126° |
| 2026-05-06 21:57 | 48.44390 | 10.24200 | 32911 ft | 451 kts | 126° |
| 2026-05-06 21:58 | 48.41150 | 10.32279 | 32915 ft | 451 kts | 126° |
| 2026-05-06 21:58 | 48.37909 | 10.40341 | 32882 ft | 450 kts | 126° |
| 2026-05-06 21:59 | 48.34658 | 10.48399 | 32912 ft | 451 kts | 126° |
| 2026-05-06 21:59 | 48.31409 | 10.56456 | 32911 ft | 451 kts | 126° |
| 2026-05-06 22:00 | 48.28157 | 10.64501 | 32917 ft | 451 kts | 126° |
| 2026-05-06 22:00 | 48.24889 | 10.72535 | 32919 ft | 451 kts | 127° |
| 2026-05-06 22:01 | 48.21616 | 10.80537 | 32931 ft | 450 kts | 127° |
| 2026-05-06 22:01 | 48.18352 | 10.88532 | 32923 ft | 449 kts | 126° |
| 2026-05-06 22:02 | 48.15081 | 10.96513 | 32921 ft | 449 kts | 127° |
| 2026-05-06 22:02 | 48.11806 | 11.04476 | 32919 ft | 450 kts | 127° |
| 2026-05-06 22:03 | 48.08508 | 11.12466 | 32917 ft | 452 kts | 127° |
| 2026-05-06 22:03 | 48.05197 | 11.20479 | 32919 ft | 453 kts | 127° |
| 2026-05-06 22:04 | 48.01878 | 11.28482 | 32920 ft | 453 kts | 127° |
| 2026-05-06 22:04 | 47.98548 | 11.36474 | 32920 ft | 453 kts | 127° |
| 2026-05-06 22:05 | 47.95235 | 11.44407 | 32921 ft | 453 kts | 127° |
| 2026-05-06 22:05 | 47.91874 | 11.52434 | 32902 ft | 454 kts | 128° |
| 2026-05-06 22:06 | 47.88545 | 11.60365 | 32924 ft | 455 kts | 128° |
| 2026-05-06 22:06 | 47.85180 | 11.68355 | 32925 ft | 455 kts | 128° |
| 2026-05-06 22:07 | 47.81812 | 11.76331 | 32926 ft | 456 kts | 128° |
| 2026-05-06 22:07 | 47.78432 | 11.84313 | 32926 ft | 456 kts | 129° |
| 2026-05-06 22:08 | 47.75036 | 11.92297 | 32931 ft | 457 kts | 129° |
| 2026-05-06 22:08 | 47.71630 | 12.00279 | 32930 ft | 457 kts | 129° |
| 2026-05-06 22:09 | 47.68226 | 12.08247 | 32932 ft | 457 kts | 129° |
| 2026-05-06 22:09 | 47.64817 | 12.16216 | 32933 ft | 457 kts | 129° |
| 2026-05-06 22:10 | 47.61398 | 12.24170 | 32935 ft | 458 kts | 129° |
| 2026-05-06 22:10 | 47.57958 | 12.32113 | 32930 ft | 458 kts | 129° |
| 2026-05-06 22:11 | 47.54239 | 12.39656 | 32920 ft | 447 kts | 140° |
| 2026-05-06 22:11 | 47.50039 | 12.46359 | 32919 ft | 447 kts | 140° |
| 2026-05-06 22:12 | 47.45818 | 12.53097 | 32923 ft | 446 kts | 140° |
| 2026-05-06 22:12 | 47.41597 | 12.59829 | 32918 ft | 446 kts | 141° |
| 2026-05-06 22:13 | 47.37383 | 12.66533 | 32915 ft | 445 kts | 141° |
| 2026-05-06 22:13 | 47.33160 | 12.73212 | 32918 ft | 445 kts | 141° |
| 2026-05-06 22:14 | 47.28938 | 12.79887 | 32910 ft | 445 kts | 141° |
| 2026-05-06 22:14 | 47.24728 | 12.86538 | 32914 ft | 443 kts | 141° |
| 2026-05-06 22:15 | 47.20516 | 12.93169 | 32911 ft | 444 kts | 141° |
| 2026-05-06 22:15 | 47.16287 | 12.99788 | 32927 ft | 444 kts | 141° |
| 2026-05-06 22:16 | 47.12059 | 13.06407 | 32932 ft | 444 kts | 141° |
| 2026-05-06 22:16 | 47.07823 | 13.13024 | 32935 ft | 444 kts | 141° |
| 2026-05-06 22:17 | 47.03580 | 13.19628 | 32942 ft | 445 kts | 142° |
| 2026-05-06 22:17 | 46.99325 | 13.26233 | 32961 ft | 447 kts | 142° |
| 2026-05-06 22:18 | 46.95055 | 13.32840 | 32948 ft | 447 kts | 142° |
| 2026-05-06 22:18 | 46.90783 | 13.39441 | 32952 ft | 447 kts | 142° |
| 2026-05-06 22:19 | 46.86510 | 13.46032 | 32951 ft | 446 kts | 142° |
| 2026-05-06 22:19 | 46.82241 | 13.52605 | 32952 ft | 446 kts | 142° |
| 2026-05-06 22:20 | 46.77958 | 13.59172 | 32942 ft | 447 kts | 141° |
| 2026-05-06 22:20 | 46.73647 | 13.65770 | 32947 ft | 450 kts | 141° |
| 2026-05-06 22:21 | 46.69331 | 13.72368 | 32950 ft | 450 kts | 141° |
| 2026-05-06 22:21 | 46.65002 | 13.78950 | 32948 ft | 450 kts | 141° |
| 2026-05-06 22:22 | 46.60675 | 13.85527 | 32948 ft | 450 kts | 141° |
| 2026-05-06 22:22 | 46.57071 | 13.90988 | 32948 ft | 451 kts | 141° |
| 2026-05-06 22:23 | 46.52732 | 13.97545 | 32936 ft | 450 kts | 141° |
| 2026-05-06 22:23 | 46.47669 | 14.05139 | 32946 ft | 450 kts | 142° |
| 2026-05-06 22:24 | 46.43945 | 14.10479 | 32948 ft | 449 kts | 143° |
| 2026-05-06 22:24 | 46.39451 | 14.16743 | 32949 ft | 449 kts | 143° |
| 2026-05-06 22:25 | 46.34945 | 14.23020 | 32938 ft | 450 kts | 142° |
| 2026-05-06 22:25 | 46.30443 | 14.29339 | 32948 ft | 451 kts | 142° |
| 2026-05-06 22:26 | 46.25946 | 14.35656 | 32951 ft | 451 kts | 142° |
| 2026-05-06 22:26 | 46.21469 | 14.41929 | 32959 ft | 451 kts | 142° |
| 2026-05-06 22:27 | 46.16957 | 14.48214 | 32927 ft | 450 kts | 142° |
| 2026-05-06 22:27 | 46.12454 | 14.54478 | 32950 ft | 450 kts | 142° |
| 2026-05-06 22:28 | 46.07943 | 14.60735 | 32959 ft | 450 kts | 142° |
| 2026-05-06 22:28 | 46.03425 | 14.66989 | 32964 ft | 451 kts | 142° |
| 2026-05-06 22:29 | 45.98906 | 14.73237 | 32958 ft | 451 kts | 143° |
| 2026-05-06 22:29 | 45.94385 | 14.79470 | 32951 ft | 451 kts | 143° |
| 2026-05-06 22:30 | 45.89862 | 14.85708 | 32960 ft | 450 kts | 143° |
| 2026-05-06 22:30 | 45.85333 | 14.91919 | 32971 ft | 450 kts | 143° |
| 2026-05-06 22:31 | 45.80796 | 14.98118 | 32972 ft | 450 kts | 143° |
| 2026-05-06 22:31 | 45.76266 | 15.04307 | 32971 ft | 450 kts | 143° |
| 2026-05-06 22:32 | 45.71728 | 15.10488 | 32943 ft | 450 kts | 143° |
| 2026-05-06 22:32 | 45.67180 | 15.16661 | 32950 ft | 451 kts | 143° |
| 2026-05-06 22:33 | 45.62620 | 15.22837 | 32952 ft | 452 kts | 143° |
| 2026-05-06 22:33 | 45.58087 | 15.28963 | 32964 ft | 452 kts | 142° |
| 2026-05-06 22:34 | 45.53910 | 15.35786 | 32962 ft | 458 kts | 136° |
| 2026-05-06 22:34 | 45.49808 | 15.42727 | 32970 ft | 458 kts | 136° |
| 2026-05-06 22:35 | 45.45691 | 15.49642 | 32990 ft | 457 kts | 137° |
| 2026-05-06 22:35 | 45.41575 | 15.56540 | 32982 ft | 457 kts | 137° |
| 2026-05-06 22:36 | 45.37458 | 15.63430 | 32980 ft | 457 kts | 137° |
| 2026-05-06 22:36 | 45.33335 | 15.70310 | 32969 ft | 457 kts | 137° |
| 2026-05-06 22:37 | 45.29206 | 15.77174 | 32969 ft | 457 kts | 137° |
| 2026-05-06 22:37 | 45.25083 | 15.84023 | 32979 ft | 456 kts | 137° |
| 2026-05-06 22:38 | 45.20957 | 15.90863 | 32994 ft | 456 kts | 137° |
| 2026-05-06 22:38 | 45.16823 | 15.97686 | 32944 ft | 456 kts | 137° |
| 2026-05-06 22:39 | 45.12686 | 16.04498 | 32969 ft | 456 kts | 137° |
| 2026-05-06 22:39 | 45.08547 | 16.11317 | 32975 ft | 457 kts | 137° |
| 2026-05-06 22:40 | 45.04396 | 16.18118 | 32978 ft | 457 kts | 137° |
| 2026-05-06 22:40 | 45.00241 | 16.24911 | 32979 ft | 457 kts | 137° |
| 2026-05-06 22:41 | 44.94002 | 16.35100 | 32957 ft | 458 kts | 137° |
| 2026-05-06 22:42 | 44.89820 | 16.41887 | 32971 ft | 458 kts | 137° |
| 2026-05-06 22:42 | 44.85632 | 16.48670 | 32983 ft | 459 kts | 137° |
| 2026-05-06 22:43 | 44.81443 | 16.55458 | 32969 ft | 459 kts | 137° |
| 2026-05-06 22:43 | 44.77248 | 16.62225 | 32980 ft | 459 kts | 137° |
| 2026-05-06 22:44 | 44.73043 | 16.68983 | 32983 ft | 459 kts | 137° |
| 2026-05-06 22:44 | 44.68866 | 16.75694 | 33005 ft | 459 kts | 137° |
| 2026-05-06 22:45 | 44.64668 | 16.82445 | 33002 ft | 458 kts | 137° |
| 2026-05-06 22:45 | 44.60458 | 16.89168 | 32980 ft | 459 kts | 138° |
| 2026-05-06 22:46 | 44.56284 | 16.95968 | 32999 ft | 461 kts | 136° |
| 2026-05-06 22:46 | 44.52262 | 17.03006 | 33010 ft | 463 kts | 135° |
| 2026-05-06 22:47 | 44.48272 | 17.10082 | 33024 ft | 463 kts | 135° |
| 2026-05-06 22:47 | 44.44240 | 17.17096 | 33009 ft | 463 kts | 135° |
| 2026-05-06 22:48 | 44.40165 | 17.24079 | 33011 ft | 463 kts | 136° |
| 2026-05-06 22:48 | 44.36092 | 17.31042 | 33033 ft | 463 kts | 136° |
| 2026-05-06 22:49 | 44.32018 | 17.38014 | 33032 ft | 463 kts | 136° |
| 2026-05-06 22:49 | 44.27942 | 17.44988 | 33018 ft | 464 kts | 135° |
| 2026-05-06 22:50 | 44.23853 | 17.51959 | 33028 ft | 465 kts | 136° |
| 2026-05-06 22:50 | 44.19787 | 17.58880 | 33027 ft | 465 kts | 135° |
| 2026-05-06 22:51 | 44.15684 | 17.65846 | 33041 ft | 465 kts | 135° |
| 2026-05-06 22:51 | 44.11577 | 17.72791 | 33032 ft | 465 kts | 135° |
| 2026-05-06 22:52 | 44.07455 | 17.79743 | 33033 ft | 466 kts | 135° |
| 2026-05-06 22:52 | 44.03319 | 17.86696 | 33053 ft | 467 kts | 135° |
| 2026-05-06 22:53 | 43.99178 | 17.93654 | 33055 ft | 467 kts | 135° |
| 2026-05-06 22:53 | 43.95043 | 18.00599 | 33034 ft | 467 kts | 135° |
| 2026-05-06 22:54 | 43.90886 | 18.07543 | 33039 ft | 468 kts | 135° |
| 2026-05-06 22:54 | 43.86713 | 18.14486 | 33049 ft | 469 kts | 135° |
| 2026-05-06 22:55 | 43.82540 | 18.21426 | 33065 ft | 469 kts | 135° |
| 2026-05-06 22:55 | 43.78368 | 18.28368 | 33064 ft | 469 kts | 135° |
| 2026-05-06 22:56 | 43.74187 | 18.35290 | 33067 ft | 469 kts | 135° |
| 2026-05-06 22:56 | 43.70001 | 18.42202 | 33071 ft | 469 kts | 135° |
| 2026-05-06 22:57 | 43.65807 | 18.49107 | 33068 ft | 469 kts | 135° |
| 2026-05-06 22:57 | 43.61618 | 18.55999 | 33056 ft | 469 kts | 135° |
| 2026-05-06 22:58 | 43.57412 | 18.62905 | 33060 ft | 470 kts | 135° |
| 2026-05-06 22:58 | 43.53193 | 18.69792 | 33061 ft | 471 kts | 135° |
| 2026-05-06 22:59 | 43.48965 | 18.76684 | 33075 ft | 471 kts | 135° |
| 2026-05-06 22:59 | 43.44779 | 18.83622 | 33058 ft | 472 kts | 134° |
| 2026-05-06 23:00 | 43.40695 | 18.90730 | 33064 ft | 474 kts | 133° |
| 2026-05-06 23:00 | 43.36621 | 18.97862 | 33061 ft | 475 kts | 133° |
| 2026-05-06 23:01 | 43.32502 | 19.04955 | 33072 ft | 475 kts | 134° |
| 2026-05-06 23:01 | 43.28359 | 19.12023 | 33066 ft | 475 kts | 134° |
| 2026-05-06 23:02 | 43.24231 | 19.19041 | 33068 ft | 475 kts | 134° |
| 2026-05-06 23:02 | 43.20077 | 19.26099 | 33072 ft | 476 kts | 134° |
| 2026-05-06 23:03 | 43.15914 | 19.33167 | 33086 ft | 477 kts | 134° |
| 2026-05-06 23:03 | 43.11744 | 19.40227 | 33101 ft | 477 kts | 134° |
| 2026-05-06 23:04 | 43.07581 | 19.47293 | 33093 ft | 477 kts | 133° |
| 2026-05-06 23:04 | 43.03406 | 19.54335 | 33108 ft | 477 kts | 133° |
| 2026-05-06 23:05 | 42.99221 | 19.61360 | 33108 ft | 476 kts | 133° |
| 2026-05-06 23:05 | 42.95037 | 19.68379 | 33117 ft | 476 kts | 133° |
| 2026-05-06 23:06 | 42.90860 | 19.75382 | 33118 ft | 476 kts | 133° |
| 2026-05-06 23:06 | 42.86678 | 19.82377 | 33089 ft | 476 kts | 133° |
| 2026-05-06 23:07 | 42.82486 | 19.89371 | 33094 ft | 477 kts | 133° |
| 2026-05-06 23:07 | 42.78273 | 19.96362 | 33094 ft | 477 kts | 133° |
| 2026-05-06 23:08 | 42.74055 | 20.03342 | 33095 ft | 477 kts | 133° |
| 2026-05-06 23:08 | 42.69835 | 20.10320 | 33090 ft | 478 kts | 133° |
| 2026-05-06 23:09 | 42.65611 | 20.17299 | 33082 ft | 478 kts | 133° |
| 2026-05-06 23:09 | 42.61375 | 20.24265 | 33074 ft | 478 kts | 133° |
| 2026-05-06 23:10 | 42.57138 | 20.31230 | 33068 ft | 479 kts | 133° |
| 2026-05-06 23:10 | 42.52887 | 20.38203 | 33069 ft | 480 kts | 133° |
| 2026-05-06 23:11 | 42.48619 | 20.45167 | 33075 ft | 480 kts | 133° |
| 2026-05-06 23:11 | 42.44346 | 20.52126 | 33073 ft | 480 kts | 133° |
| 2026-05-06 23:12 | 42.40796 | 20.57903 | 33082 ft | 481 kts | 133° |
| 2026-05-06 23:12 | 42.36508 | 20.64857 | 33089 ft | 481 kts | 133° |
| 2026-05-06 23:13 | 42.32228 | 20.71806 | 33097 ft | 481 kts | 133° |
| 2026-05-06 23:13 | 42.27938 | 20.78741 | 33081 ft | 481 kts | 133° |
| 2026-05-06 23:14 | 42.23642 | 20.85674 | 33088 ft | 482 kts | 132° |
| 2026-05-06 23:14 | 42.19337 | 20.92594 | 33080 ft | 481 kts | 132° |
| 2026-05-06 23:15 | 42.15028 | 20.99513 | 33093 ft | 482 kts | 132° |
| 2026-05-06 23:15 | 42.10787 | 21.06496 | 33080 ft | 483 kts | 126° |
| 2026-05-06 23:16 | 42.07056 | 21.14015 | 33067 ft | 483 kts | 125° |
| 2026-05-06 23:16 | 42.03337 | 21.21542 | 33070 ft | 483 kts | 125° |
| 2026-05-06 23:17 | 41.99634 | 21.28998 | 33056 ft | 483 kts | 125° |
| 2026-05-06 23:17 | 41.95892 | 21.36488 | 33062 ft | 483 kts | 125° |
| 2026-05-06 23:18 | 41.92148 | 21.43976 | 33054 ft | 483 kts | 125° |
| 2026-05-06 23:18 | 41.88402 | 21.51455 | 33056 ft | 483 kts | 125° |
| 2026-05-06 23:19 | 41.84654 | 21.58922 | 33067 ft | 483 kts | 125° |
| 2026-05-06 23:19 | 41.80893 | 21.66381 | 33065 ft | 483 kts | 125° |
| 2026-05-06 23:20 | 41.77133 | 21.73836 | 33060 ft | 483 kts | 125° |
| 2026-05-06 23:20 | 41.73371 | 21.81282 | 33055 ft | 483 kts | 125° |
| 2026-05-06 23:21 | 41.69600 | 21.88720 | 33049 ft | 483 kts | 125° |
| 2026-05-06 23:21 | 41.65817 | 21.96155 | 33048 ft | 483 kts | 125° |
| 2026-05-06 23:22 | 41.62032 | 22.03581 | 33051 ft | 484 kts | 125° |
| 2026-05-06 23:22 | 41.58240 | 22.11004 | 33062 ft | 484 kts | 125° |
| 2026-05-06 23:23 | 41.54445 | 22.18417 | 33065 ft | 484 kts | 124° |
| 2026-05-06 23:23 | 41.50642 | 22.25827 | 33071 ft | 484 kts | 124° |
| 2026-05-06 23:24 | 41.46827 | 22.33232 | 33080 ft | 484 kts | 124° |
| 2026-05-06 23:24 | 41.43013 | 22.40628 | 33082 ft | 484 kts | 124° |
| 2026-05-06 23:25 | 41.39193 | 22.48021 | 33092 ft | 484 kts | 124° |
| 2026-05-06 23:25 | 41.35366 | 22.55403 | 33078 ft | 485 kts | 124° |
| 2026-05-06 23:26 | 41.31527 | 22.62787 | 33079 ft | 485 kts | 124° |
| 2026-05-06 23:26 | 41.27712 | 22.70113 | 33084 ft | 485 kts | 124° |
| 2026-05-06 23:27 | 41.23750 | 22.77379 | 33091 ft | 485 kts | 130° |
| 2026-05-06 23:27 | 41.19384 | 22.84230 | 33088 ft | 486 kts | 130° |
| 2026-05-06 23:28 | 41.15008 | 22.91088 | 33085 ft | 487 kts | 130° |
| 2026-05-06 23:28 | 41.10638 | 22.97959 | 33085 ft | 487 kts | 129° |
| 2026-05-06 23:29 | 41.06753 | 23.05312 | 33085 ft | 487 kts | 123° |
| 2026-05-06 23:29 | 41.02974 | 23.12763 | 33089 ft | 487 kts | 122° |
| 2026-05-06 23:30 | 40.99179 | 23.20199 | 33085 ft | 488 kts | 122° |
| 2026-05-06 23:30 | 40.95376 | 23.27645 | 33087 ft | 488 kts | 122° |
| 2026-05-06 23:31 | 40.91570 | 23.35090 | 33093 ft | 489 kts | 122° |
| 2026-05-06 23:31 | 40.87762 | 23.42518 | 33098 ft | 489 kts | 122° |
| 2026-05-06 23:32 | 40.83938 | 23.49954 | 33090 ft | 490 kts | 122° |
| 2026-05-06 23:32 | 40.80108 | 23.57401 | 33085 ft | 490 kts | 122° |
| 2026-05-06 23:33 | 40.76270 | 23.64843 | 33087 ft | 491 kts | 122° |
| 2026-05-06 23:33 | 40.72451 | 23.72228 | 33091 ft | 491 kts | 122° |
| 2026-05-06 23:34 | 40.68596 | 23.79652 | 33089 ft | 491 kts | 122° |
| 2026-05-06 23:34 | 40.64727 | 23.87069 | 33092 ft | 491 kts | 122° |
| 2026-05-06 23:35 | 40.60862 | 23.94480 | 33090 ft | 491 kts | 122° |
| 2026-05-06 23:35 | 40.56992 | 24.01892 | 33088 ft | 491 kts | 122° |
| 2026-05-06 23:36 | 40.53116 | 24.09288 | 33093 ft | 491 kts | 122° |
| 2026-05-06 23:36 | 40.49235 | 24.16673 | 33091 ft | 491 kts | 122° |
| 2026-05-06 23:37 | 40.45348 | 24.24051 | 33095 ft | 491 kts | 122° |
| 2026-05-06 23:37 | 40.41461 | 24.31417 | 33090 ft | 491 kts | 122° |
| 2026-05-06 23:38 | 40.37571 | 24.38774 | 33102 ft | 491 kts | 122° |
| 2026-05-06 23:38 | 40.33677 | 24.46113 | 33092 ft | 490 kts | 123° |
| 2026-05-06 23:39 | 40.29789 | 24.53430 | 33092 ft | 489 kts | 123° |
| 2026-05-06 23:39 | 40.25895 | 24.60732 | 33093 ft | 489 kts | 123° |
| 2026-05-06 23:40 | 40.22015 | 24.68012 | 33274 ft | 487 kts | 123° |
| 2026-05-06 23:40 | 40.20074 | 24.71647 | 33549 ft | 486 kts | 123° |
| 2026-05-06 23:40 | 40.18139 | 24.75263 | 33812 ft | 485 kts | 123° |
| 2026-05-06 23:40 | 40.16206 | 24.78869 | 34026 ft | 485 kts | 123° |
| 2026-05-06 23:41 | 40.14263 | 24.82488 | 34074 ft | 487 kts | 123° |
| 2026-05-06 23:41 | 40.10352 | 24.89745 | 34076 ft | 488 kts | 123° |
| 2026-05-06 23:42 | 40.06438 | 24.96995 | 34079 ft | 488 kts | 123° |
| 2026-05-06 23:42 | 40.02531 | 25.04233 | 34079 ft | 486 kts | 123° |
| 2026-05-06 23:43 | 39.98641 | 25.11429 | 34081 ft | 485 kts | 123° |
| 2026-05-06 23:43 | 39.94738 | 25.18613 | 34086 ft | 485 kts | 123° |
| 2026-05-06 23:44 | 39.90497 | 25.25372 | 34094 ft | 487 kts | 136° |
| 2026-05-06 23:44 | 39.85387 | 25.31165 | 34095 ft | 488 kts | 139° |
| 2026-05-06 23:45 | 39.80277 | 25.36972 | 34098 ft | 488 kts | 138° |
| 2026-05-06 23:45 | 39.75183 | 25.42785 | 34101 ft | 487 kts | 139° |
| 2026-05-06 23:46 | 39.70070 | 25.48570 | 34092 ft | 487 kts | 139° |
| 2026-05-06 23:46 | 39.64956 | 25.54339 | 34101 ft | 487 kts | 139° |
| 2026-05-06 23:47 | 39.59838 | 25.60096 | 34097 ft | 487 kts | 139° |
| 2026-05-06 23:47 | 39.54721 | 25.65852 | 34109 ft | 487 kts | 139° |
| 2026-05-06 23:48 | 39.49607 | 25.71594 | 34106 ft | 486 kts | 139° |
| 2026-05-06 23:48 | 39.44493 | 25.77324 | 34106 ft | 486 kts | 139° |
| 2026-05-06 23:49 | 39.39372 | 25.83036 | 34106 ft | 486 kts | 139° |
| 2026-05-06 23:49 | 39.34289 | 25.88699 | 34106 ft | 486 kts | 139° |
| 2026-05-06 23:50 | 39.29168 | 25.94386 | 34107 ft | 485 kts | 139° |
| 2026-05-06 23:50 | 39.21418 | 26.02797 | 34114 ft | 486 kts | 140° |
| 2026-05-06 23:51 | 39.16205 | 26.08338 | 34114 ft | 486 kts | 140° |
| 2026-05-06 23:51 | 39.10997 | 26.13886 | 34115 ft | 486 kts | 140° |
| 2026-05-06 23:52 | 39.05803 | 26.19444 | 34118 ft | 485 kts | 140° |
| 2026-05-06 23:52 | 39.00611 | 26.24988 | 34117 ft | 485 kts | 140° |
| 2026-05-06 23:53 | 38.95418 | 26.30522 | 34126 ft | 485 kts | 140° |
| 2026-05-06 23:53 | 38.90217 | 26.36051 | 34118 ft | 485 kts | 140° |
| 2026-05-06 23:54 | 38.85599 | 26.42318 | 34106 ft | 483 kts | 122° |
| 2026-05-06 23:54 | 38.82719 | 26.50012 | 34115 ft | 477 kts | 103° |
| 2026-05-06 23:55 | 38.81522 | 26.58329 | 34123 ft | 474 kts | 95° |
| 2026-05-06 23:55 | 38.80491 | 26.66684 | 34112 ft | 475 kts | 96° |
| 2026-05-06 23:56 | 38.79430 | 26.75046 | 34114 ft | 476 kts | 96° |
| 2026-05-06 23:56 | 38.78377 | 26.83363 | 34112 ft | 476 kts | 96° |
| 2026-05-06 23:57 | 38.77265 | 26.91734 | 34127 ft | 478 kts | 101° |
| 2026-05-06 23:57 | 38.74761 | 26.99662 | 34128 ft | 485 kts | 120° |
| 2026-05-06 23:58 | 38.70796 | 27.06664 | 34104 ft | 486 kts | 126° |
| 2026-05-06 23:58 | 38.66724 | 27.13579 | 34120 ft | 486 kts | 126° |
| 2026-05-06 23:59 | 38.62655 | 27.20501 | 34139 ft | 487 kts | 126° |
| 2026-05-06 23:59 | 38.58566 | 27.27412 | 34134 ft | 487 kts | 126° |
| 2026-05-07 00:00 | 38.54472 | 27.34322 | 34125 ft | 488 kts | 126° |
| 2026-05-07 00:00 | 38.51068 | 27.40064 | 34139 ft | 488 kts | 126° |
| 2026-05-07 00:01 | 38.48320 | 27.44694 | 33883 ft | 488 kts | 126° |
| 2026-05-07 00:01 | 38.46268 | 27.48144 | 33629 ft | 488 kts | 126° |
| 2026-05-07 00:01 | 38.44210 | 27.51600 | 33358 ft | 490 kts | 126° |
| 2026-05-07 00:01 | 38.42147 | 27.55063 | 33087 ft | 491 kts | 126° |
| 2026-05-07 00:02 | 38.40081 | 27.58533 | 32811 ft | 492 kts | 126° |
| 2026-05-07 00:02 | 38.38713 | 27.60827 | 32655 ft | 493 kts | 126° |
| 2026-05-07 00:02 | 38.36632 | 27.64308 | 32396 ft | 494 kts | 126° |
| 2026-05-07 00:02 | 38.34546 | 27.67790 | 32134 ft | 495 kts | 126° |
| 2026-05-07 00:03 | 38.32458 | 27.71273 | 31872 ft | 495 kts | 126° |
| 2026-05-07 00:03 | 38.30367 | 27.74755 | 31621 ft | 494 kts | 126° |
| 2026-05-07 00:03 | 38.28280 | 27.78225 | 31363 ft | 493 kts | 127° |
| 2026-05-07 00:03 | 38.25955 | 27.81435 | 31120 ft | 494 kts | 137° |
| 2026-05-07 00:04 | 38.23255 | 27.84120 | 30881 ft | 493 kts | 145° |
| 2026-05-07 00:04 | 38.20448 | 27.86622 | 30637 ft | 492 kts | 145° |
| 2026-05-07 00:04 | 38.17648 | 27.89119 | 30396 ft | 491 kts | 144° |
| 2026-05-07 00:04 | 38.14853 | 27.91618 | 30152 ft | 491 kts | 144° |
| 2026-05-07 00:05 | 38.12070 | 27.94112 | 29865 ft | 489 kts | 144° |
| 2026-05-07 00:05 | 38.09295 | 27.96596 | 29585 ft | 487 kts | 144° |
| 2026-05-07 00:05 | 38.06533 | 27.99067 | 29311 ft | 485 kts | 144° |
| 2026-05-07 00:05 | 38.03778 | 28.01529 | 29016 ft | 482 kts | 144° |
| 2026-05-07 00:06 | 38.01042 | 28.03973 | 28748 ft | 480 kts | 144° |
| 2026-05-07 00:06 | 37.98319 | 28.06402 | 28489 ft | 477 kts | 144° |
| 2026-05-07 00:06 | 37.95616 | 28.08808 | 27998 ft | 472 kts | 144° |
| 2026-05-07 00:06 | 37.92941 | 28.11183 | 27472 ft | 468 kts | 145° |
| 2026-05-07 00:07 | 37.90291 | 28.13533 | 26957 ft | 462 kts | 144° |
| 2026-05-07 00:07 | 37.87675 | 28.15857 | 26445 ft | 458 kts | 144° |
| 2026-05-07 00:07 | 37.85081 | 28.18164 | 25939 ft | 454 kts | 144° |
| 2026-05-07 00:07 | 37.82508 | 28.20449 | 25447 ft | 450 kts | 145° |
| 2026-05-07 00:08 | 37.79951 | 28.22714 | 24953 ft | 447 kts | 145° |
| 2026-05-07 00:08 | 37.77411 | 28.24961 | 24476 ft | 444 kts | 145° |
| 2026-05-07 00:08 | 37.74888 | 28.27189 | 24017 ft | 440 kts | 144° |
| 2026-05-07 00:08 | 37.72387 | 28.29400 | 23539 ft | 437 kts | 144° |
| 2026-05-07 00:09 | 37.69913 | 28.31586 | 23075 ft | 431 kts | 145° |
| 2026-05-07 00:09 | 37.67472 | 28.33740 | 22643 ft | 426 kts | 145° |
| 2026-05-07 00:09 | 37.65060 | 28.35866 | 22209 ft | 420 kts | 145° |
| 2026-05-07 00:09 | 37.62677 | 28.37967 | 21785 ft | 416 kts | 145° |
| 2026-05-07 00:10 | 37.60320 | 28.40042 | 21343 ft | 411 kts | 145° |
| 2026-05-07 00:10 | 37.57986 | 28.42095 | 20917 ft | 407 kts | 145° |
| 2026-05-07 00:10 | 37.55676 | 28.44124 | 20491 ft | 402 kts | 145° |
| 2026-05-07 00:10 | 37.53393 | 28.46124 | 20057 ft | 398 kts | 145° |
| 2026-05-07 00:11 | 37.51131 | 28.48105 | 19601 ft | 395 kts | 145° |
| 2026-05-07 00:11 | 37.48841 | 28.49989 | 19160 ft | 391 kts | 152° |
| 2026-05-07 00:11 | 37.46384 | 28.51438 | 18741 ft | 394 kts | 158° |
| 2026-05-07 00:11 | 37.43851 | 28.52823 | 18286 ft | 397 kts | 158° |
| 2026-05-07 00:12 | 37.41323 | 28.54214 | 17834 ft | 396 kts | 158° |
| 2026-05-07 00:12 | 37.38842 | 28.55583 | 17411 ft | 393 kts | 157° |
| 2026-05-07 00:12 | 37.36314 | 28.56978 | 16976 ft | 391 kts | 157° |
| 2026-05-07 00:12 | 37.33864 | 28.58327 | 16556 ft | 388 kts | 157° |
| 2026-05-07 00:13 | 37.31399 | 28.59683 | 16132 ft | 385 kts | 157° |
| 2026-05-07 00:13 | 37.28953 | 28.61027 | 15715 ft | 383 kts | 157° |
| 2026-05-07 00:13 | 37.26518 | 28.62361 | 15303 ft | 380 kts | 157° |
| 2026-05-07 00:13 | 37.24103 | 28.63688 | 14878 ft | 377 kts | 157° |
| 2026-05-07 00:14 | 37.21712 | 28.65005 | 14475 ft | 374 kts | 157° |
| 2026-05-07 00:14 | 37.19332 | 28.66313 | 14066 ft | 372 kts | 157° |
| 2026-05-07 00:14 | 37.16966 | 28.67611 | 13632 ft | 370 kts | 157° |
| 2026-05-07 00:14 | 37.14616 | 28.68898 | 13227 ft | 367 kts | 157° |
| 2026-05-07 00:15 | 37.12303 | 28.70161 | 12978 ft | 356 kts | 157° |
| 2026-05-07 00:15 | 37.10075 | 28.71376 | 12845 ft | 342 kts | 157° |
| 2026-05-07 00:15 | 37.07921 | 28.72500 | 12669 ft | 330 kts | 163° |
| 2026-05-07 00:15 | 37.05707 | 28.73101 | 12377 ft | 322 kts | 176° |
| 2026-05-07 00:16 | 37.03492 | 28.73093 | 12143 ft | 317 kts | 186° |
| 2026-05-07 00:16 | 37.01289 | 28.72919 | 11885 ft | 317 kts | 185° |
| 2026-05-07 00:16 | 36.99099 | 28.72755 | 11554 ft | 314 kts | 185° |
| 2026-05-07 00:16 | 36.96921 | 28.72598 | 11216 ft | 312 kts | 185° |
| 2026-05-07 00:17 | 36.94759 | 28.72442 | 10892 ft | 310 kts | 185° |
| 2026-05-07 00:17 | 36.92607 | 28.72285 | 10558 ft | 309 kts | 185° |
| 2026-05-07 00:17 | 36.90471 | 28.72125 | 10235 ft | 306 kts | 186° |
| 2026-05-07 00:17 | 36.88394 | 28.71632 | 9894 ft | 303 kts | 196° |
| 2026-05-07 00:18 | 36.86356 | 28.70984 | 9557 ft | 301 kts | 197° |
| 2026-05-07 00:18 | 36.84325 | 28.70343 | 9238 ft | 300 kts | 195° |
| 2026-05-07 00:18 | 36.82305 | 28.69711 | 8913 ft | 298 kts | 195° |
| 2026-05-07 00:18 | 36.80302 | 28.69088 | 8605 ft | 296 kts | 195° |
| 2026-05-07 00:19 | 36.78312 | 28.68472 | 8299 ft | 294 kts | 195° |
| 2026-05-07 00:19 | 36.76331 | 28.67861 | 7992 ft | 292 kts | 195° |
| 2026-05-07 00:19 | 36.74366 | 28.67252 | 7676 ft | 290 kts | 195° |
| 2026-05-07 00:19 | 36.72427 | 28.66648 | 7484 ft | 282 kts | 195° |
| 2026-05-07 00:20 | 36.70562 | 28.66067 | 7351 ft | 271 kts | 195° |
| 2026-05-07 00:20 | 36.68769 | 28.65510 | 7218 ft | 261 kts | 195° |
| 2026-05-07 00:20 | 36.67031 | 28.64948 | 6983 ft | 256 kts | 196° |
| 2026-05-07 00:20 | 36.65328 | 28.64371 | 6763 ft | 252 kts | 196° |
| 2026-05-07 00:21 | 36.63642 | 28.63790 | 6497 ft | 250 kts | 196° |
| 2026-05-07 00:21 | 36.61970 | 28.63214 | 6239 ft | 249 kts | 196° |
| 2026-05-07 00:21 | 36.60304 | 28.62644 | 5973 ft | 248 kts | 196° |
| 2026-05-07 00:21 | 36.58643 | 28.62079 | 5701 ft | 247 kts | 196° |
| 2026-05-07 00:22 | 36.56993 | 28.61520 | 5408 ft | 245 kts | 196° |
| 2026-05-07 00:22 | 36.55326 | 28.61147 | 5114 ft | 243 kts | 176° |
| 2026-05-07 00:22 | 36.53745 | 28.61791 | 4823 ft | 241 kts | 143° |
| 2026-05-07 00:22 | 36.52690 | 28.63357 | 4526 ft | 238 kts | 111° |
| 2026-05-07 00:23 | 36.52243 | 28.65330 | 4240 ft | 238 kts | 103° |
| 2026-05-07 00:23 | 36.51822 | 28.67319 | 3949 ft | 238 kts | 103° |
| 2026-05-07 00:23 | 36.51388 | 28.69288 | 3733 ft | 231 kts | 102° |
| 2026-05-07 00:23 | 36.51417 | 28.71199 | 3608 ft | 219 kts | 66° |
| 2026-05-07 00:24 | 36.52342 | 28.72658 | 3521 ft | 216 kts | 30° |
| 2026-05-07 00:24 | 36.53716 | 28.73300 | 3300 ft | 206 kts | 14° |
| 2026-05-07 00:24 | 36.55041 | 28.73728 | 3047 ft | 189 kts | 14° |
| 2026-05-07 00:24 | 36.56269 | 28.74134 | 2809 ft | 176 kts | 14° |
| 2026-05-07 00:25 | 36.57406 | 28.74517 | 2604 ft | 164 kts | 14° |
| 2026-05-07 00:25 | 36.58491 | 28.74884 | 2383 ft | 160 kts | 15° |
| 2026-05-07 00:25 | 36.59558 | 28.75246 | 2172 ft | 159 kts | 15° |
| 2026-05-07 00:25 | 36.60618 | 28.75606 | 1963 ft | 158 kts | 15° |
| 2026-05-07 00:26 | 36.61679 | 28.75966 | 1751 ft | 158 kts | 15° |
| 2026-05-07 00:26 | 36.62723 | 28.76321 | 1537 ft | 152 kts | 15° |
| 2026-05-07 00:26 | 36.63733 | 28.76665 | 1337 ft | 149 kts | 15° |
| 2026-05-07 00:26 | 36.64726 | 28.77003 | 1137 ft | 148 kts | 15° |
| 2026-05-07 00:27 | 36.65716 | 28.77340 | 939 ft | 147 kts | 15° |
| 2026-05-07 00:27 | 36.66701 | 28.77675 | 740 ft | 146 kts | 16° |
| 2026-05-07 00:27 | 36.67666 | 28.78003 | 546 ft | 145 kts | 16° |
| 2026-05-07 00:27 | 36.68636 | 28.78337 | 335 ft | 145 kts | 17° |
| 2026-05-07 00:28 | 36.69603 | 28.78666 | 125 ft | 144 kts | 16° |
| 2026-05-07 00:28 | 36.70561 | 28.78997 | 17 ft | 131 kts | 15° |
| 2026-05-07 00:28 | 36.71286 | 28.79242 | 15 ft | 85 kts | 15° |
| 2026-05-07 00:28 | 36.71691 | 28.79379 | 16 ft | 46 kts | 15° |
| 2026-05-07 00:29 | 36.71866 | 28.79429 | 17 ft | 20 kts | 4° |
| 2026-05-07 00:29 | 36.71987 | 28.79425 | 17 ft | 11 kts | 353° |
| 2026-05-07 00:30 | 36.72094 | 28.79395 | 17 ft | 0 kts | 345° |
| 2026-05-07 00:31 | 36.72099 | 28.79394 | 17 ft | 2 kts | 345° |
| 2026-05-07 00:31 | 36.72126 | 28.79385 | 17 ft | 6 kts | 345° |
| 2026-05-07 00:31 | 36.72180 | 28.79367 | 18 ft | 9 kts | 345° |
| 2026-05-07 00:31 | 36.72253 | 28.79342 | 18 ft | 11 kts | 342° |
| 2026-05-07 00:32 | 36.72289 | 28.79260 | 19 ft | 8 kts | 285° |
| 2026-05-07 00:32 | 36.72304 | 28.79187 | 20 ft | 4 kts | 285° |
| 2026-05-07 00:32 | 36.72316 | 28.79137 | 20 ft | 3 kts | 287° |
| 2026-05-07 00:32 | 36.72326 | 28.79101 | 18 ft | 2 kts | 290° |
| 2026-05-07 00:33 | 36.72330 | 28.79086 | 20 ft | 3 kts | 285° |
| 2026-05-07 00:33 | 36.72332 | 28.79073 | 18 ft | 0 kts | 281° |